createdAt,value
2023-02-07T00:00:24.862Z,2.60
2023-02-07T00:01:08.962Z,2.10
2023-02-07T00:03:14.970Z,2.20
2023-02-07T00:03:57.240Z,2.00
2023-02-07T00:04:38.926Z,2.10
2023-02-07T00:05:20.600Z,2.20
2023-02-07T00:06:10.861Z,2.10
2023-02-07T00:06:52.653Z,2.10
2023-02-07T00:07:34.375Z,2.10
2023-02-07T00:08:16.159Z,2.10
2023-02-07T00:09:00.125Z,2.10
2023-02-07T00:09:41.885Z,2.10
2023-02-07T00:10:23.604Z,2.00
2023-02-07T00:11:11.174Z,2.00
2023-02-07T00:11:52.876Z,2.10
2023-02-07T00:12:35.142Z,2.10
2023-02-07T00:13:16.818Z,2.10
2023-02-07T00:13:59.704Z,2.10
2023-02-07T00:14:41.571Z,2.10
2023-02-07T00:15:23.255Z,2.00
2023-02-07T00:16:06.446Z,2.00
2023-02-07T00:16:48.190Z,2.00
2023-02-07T00:17:29.990Z,1.80
2023-02-07T00:18:11.708Z,2.00
2023-02-07T00:18:54.201Z,2.00
2023-02-07T00:19:36.099Z,2.00
2023-02-07T00:20:18.094Z,2.00
2023-02-07T00:21:08.767Z,2.00
2023-02-07T00:21:50.459Z,2.00
2023-02-07T00:22:32.551Z,1.70
2023-02-07T00:23:14.242Z,2.00
2023-02-07T00:23:56.281Z,2.00
2023-02-07T00:24:37.954Z,2.20
2023-02-07T00:25:19.614Z,1.90
2023-02-07T00:26:01.779Z,2.00
2023-02-07T00:26:44.053Z,1.80
2023-02-07T00:28:07.966Z,2.00
2023-02-07T00:28:51.330Z,1.80
2023-02-07T00:29:33.411Z,2.00
2023-02-07T00:30:15.210Z,2.00
2023-02-07T00:31:30.665Z,1.90
2023-02-07T00:32:12.890Z,1.90
2023-02-07T00:33:38.873Z,2.00
2023-02-07T00:35:45.233Z,1.90
2023-02-07T00:36:29.428Z,1.90
2023-02-07T00:37:11.156Z,1.90
2023-02-07T00:37:52.840Z,2.00
2023-02-07T00:39:18.161Z,1.90
2023-02-07T00:39:59.830Z,2.00
2023-02-07T00:40:41.540Z,1.90
2023-02-07T00:41:23.379Z,1.90
2023-02-07T00:42:05.573Z,1.90
2023-02-07T00:42:47.283Z,1.90
2023-02-07T00:43:32.307Z,1.90
2023-02-07T00:44:14.186Z,2.30
2023-02-07T00:44:55.941Z,1.90
2023-02-07T00:45:37.933Z,1.90
2023-02-07T00:46:20.046Z,1.80
2023-02-07T00:47:01.795Z,2.00
2023-02-07T00:47:43.535Z,1.80
2023-02-07T00:48:26.453Z,1.90
2023-02-07T00:49:50.221Z,1.80
2023-02-07T00:51:56.541Z,1.80
2023-02-07T00:52:38.189Z,1.80
2023-02-07T00:53:19.876Z,1.80
2023-02-07T00:54:01.648Z,1.80
2023-02-07T00:55:25.365Z,1.80
2023-02-07T00:56:08.500Z,1.80
2023-02-07T00:56:50.187Z,1.80
2023-02-07T00:57:31.853Z,1.80
2023-02-07T00:58:13.569Z,1.80
2023-02-07T00:58:55.469Z,1.80
2023-02-07T00:59:37.224Z,1.70
2023-02-07T01:00:19.049Z,1.80
2023-02-07T01:01:01.690Z,1.80
2023-02-07T01:02:25.542Z,1.70
2023-02-07T01:03:07.290Z,1.80
2023-02-07T01:05:13.350Z,1.60
2023-02-07T01:05:55.083Z,1.70
2023-02-07T01:06:37.115Z,1.60
2023-02-07T01:07:18.854Z,1.60
2023-02-07T01:08:00.719Z,1.50
2023-02-07T01:08:42.640Z,1.60
2023-02-07T01:10:06.854Z,1.60
2023-02-07T01:10:49.121Z,1.70
2023-02-07T01:11:31.129Z,1.60
2023-02-07T01:12:12.817Z,1.60
2023-02-07T01:12:54.527Z,1.60
2023-02-07T01:13:36.365Z,1.60
2023-02-07T01:15:00.399Z,1.60
2023-02-07T01:15:44.652Z,1.60
2023-02-07T01:16:35.660Z,1.60
2023-02-07T01:17:17.326Z,1.70
2023-02-07T01:17:59.030Z,1.60
2023-02-07T01:18:40.695Z,1.60
2023-02-07T01:20:05.158Z,1.60
2023-02-07T01:20:46.910Z,1.60
2023-02-07T01:21:28.652Z,1.50
2023-02-07T01:23:34.613Z,1.50
2023-02-07T01:24:17.611Z,1.50
2023-02-07T01:24:59.347Z,1.50
2023-02-07T01:26:26.767Z,1.50
2023-02-07T01:27:50.986Z,1.40
2023-02-07T01:28:32.734Z,1.40
2023-02-07T01:29:57.774Z,1.50
2023-02-07T01:30:40.980Z,1.50
2023-02-07T01:31:24.052Z,1.50
2023-02-07T01:32:48.297Z,1.50
2023-02-07T01:33:30.123Z,1.50
2023-02-07T01:34:13.373Z,1.50
2023-02-07T01:34:55.099Z,1.50
2023-02-07T01:35:38.611Z,1.50
2023-02-07T01:36:22.574Z,2.20
2023-02-07T01:37:46.968Z,1.40
2023-02-07T01:38:28.733Z,1.50
2023-02-07T01:39:12.572Z,1.20
2023-02-07T01:40:38.102Z,1.50
2023-02-07T01:43:27.714Z,1.20
2023-02-07T01:44:29.405Z,1.40
2023-02-07T01:45:36.321Z,1.40
2023-02-07T01:47:02.929Z,1.30
2023-02-07T01:47:44.919Z,1.40
2023-02-07T01:48:36.927Z,1.30
2023-02-07T01:49:23.404Z,1.40
2023-02-07T01:50:07.759Z,1.30
2023-02-07T01:52:19.629Z,1.30
2023-02-07T01:56:04.728Z,1.30
2023-02-07T01:56:52.868Z,1.30
2023-02-07T01:58:17.474Z,1.20
2023-02-07T01:59:01.554Z,1.60
2023-02-07T02:00:27.339Z,1.20
2023-02-07T02:01:19.261Z,1.20
2023-02-07T02:02:03.152Z,1.30
2023-02-07T02:03:27.463Z,1.10
2023-02-07T02:05:37.218Z,1.20
2023-02-07T02:06:20.834Z,1.00
2023-02-07T02:07:04.105Z,1.20
2023-02-07T02:07:48.254Z,1.00
2023-02-07T02:08:30.053Z,1.20
2023-02-07T02:09:14.883Z,1.10
2023-02-07T02:09:57.027Z,1.20
2023-02-07T02:10:44.527Z,1.40
2023-02-07T02:11:57.287Z,0.90
2023-02-07T02:12:41.856Z,1.10
2023-02-07T02:13:33.295Z,1.00
2023-02-07T02:14:19.968Z,1.10
2023-02-07T02:15:18.949Z,1.10
2023-02-07T02:16:24.329Z,1.20
2023-02-07T02:17:53.924Z,1.40
2023-02-07T02:19:07.694Z,1.20
2023-02-07T02:20:28.361Z,0.90
2023-02-07T02:21:54.897Z,0.90
2023-02-07T02:23:00.125Z,1.00
2023-02-07T02:24:02.148Z,3.40
2023-02-07T02:26:04.821Z,1.00
2023-02-07T02:27:06.180Z,0.80
2023-02-07T02:28:06.634Z,1.00
2023-02-07T02:29:20.494Z,1.00
2023-02-07T02:30:27.744Z,0.90
2023-02-07T02:31:32.485Z,1.00
2023-02-07T02:32:45.364Z,1.00
2023-02-07T02:33:49.198Z,0.90
2023-02-07T02:34:44.812Z,0.70
2023-02-07T02:36:09.158Z,0.80
2023-02-07T02:37:53.433Z,0.80
2023-02-07T02:38:42.666Z,0.90
2023-02-07T02:39:49.097Z,0.60
2023-02-07T02:40:51.528Z,0.90
2023-02-07T02:42:49.725Z,0.80
2023-02-07T02:43:44.956Z,0.70
2023-02-07T02:44:37.682Z,0.80
2023-02-07T02:46:54.155Z,0.70
2023-02-07T02:49:05.024Z,0.70
2023-02-07T02:49:48.748Z,0.60
2023-02-07T02:50:32.555Z,0.70
2023-02-07T02:51:57.267Z,0.60
2023-02-07T02:52:50.286Z,0.50
2023-02-07T02:55:13.450Z,0.70
2023-02-07T02:57:05.103Z,0.70
2023-02-07T02:57:58.501Z,0.70
2023-02-07T02:59:40.484Z,0.70
2023-02-07T03:00:25.148Z,0.60
2023-02-07T03:01:59.456Z,0.70
2023-02-07T03:03:47.547Z,0.70
2023-02-07T03:05:48.806Z,0.70
2023-02-07T03:09:24.880Z,0.50
2023-02-07T03:11:49.854Z,0.60
2023-02-07T03:17:05.283Z,0.60
2023-02-07T03:18:27.136Z,0.50
2023-02-07T03:19:11.731Z,0.60
2023-02-07T03:26:52.949Z,0.30
2023-02-07T03:32:53.444Z,0.40
2023-02-07T03:36:23.572Z,0.50
2023-02-07T03:37:18.462Z,0.50
2023-02-07T03:39:26.919Z,0.40
2023-02-07T03:43:57.471Z,0.40
2023-02-07T03:45:25.723Z,0.30
2023-02-07T03:48:18.760Z,0.20
2023-02-07T03:51:07.602Z,0.50
2023-02-07T03:51:50.157Z,0.50
2023-02-07T03:53:14.299Z,0.40
2023-02-07T03:57:29.197Z,0.40
2023-02-07T04:01:05.412Z,0.50
2023-02-07T04:01:47.578Z,0.00
2023-02-07T04:02:29.403Z,0.20
2023-02-07T04:03:13.702Z,0.40
2023-02-07T04:03:55.778Z,0.30
2023-02-07T04:04:37.787Z,0.20
2023-02-07T04:08:53.275Z,0.10
2023-02-07T04:09:35.006Z,0.10
2023-02-07T04:10:16.854Z,0.10
2023-02-07T04:11:03.580Z,0.30
2023-02-07T04:17:33.786Z,0.30
2023-02-07T04:18:15.552Z,0.30
2023-02-07T04:19:39.423Z,0.30
2023-02-07T04:22:29.581Z,0.00
2023-02-07T04:23:13.911Z,0.20
2023-02-07T04:24:40.244Z,0.20
2023-02-07T04:26:04.522Z,0.30
2023-02-07T04:26:46.232Z,0.70
2023-02-07T04:28:10.487Z,0.30
2023-02-07T04:30:59.001Z,0.10
2023-02-07T04:31:43.460Z,0.20
2023-02-07T04:33:07.721Z,0.20
2023-02-07T04:33:49.436Z,0.20
2023-02-07T04:34:31.193Z,0.30
2023-02-07T04:35:57.632Z,0.40
2023-02-07T04:36:39.448Z,0.70
2023-02-07T04:38:06.181Z,0.20
2023-02-07T04:38:48.347Z,0.40
2023-02-07T04:39:30.127Z,0.30
2023-02-07T04:40:11.932Z,0.20
2023-02-07T04:43:04.446Z,0.20
2023-02-07T04:45:13.219Z,0.20
2023-02-07T04:45:55.330Z,0.10
2023-02-07T04:46:37.043Z,0.40
2023-02-07T04:47:18.839Z,0.20
2023-02-07T04:48:00.556Z,0.10
2023-02-07T04:49:24.538Z,0.40
2023-02-07T04:50:08.647Z,0.20
2023-02-07T04:50:50.482Z,0.00
2023-02-07T04:51:32.960Z,0.70
2023-02-07T04:52:14.878Z,0.10
2023-02-07T04:52:58.698Z,0.00
2023-02-07T04:53:40.585Z,-0.10
2023-02-07T04:54:23.221Z,0.40
2023-02-07T04:55:05.248Z,0.00
2023-02-07T04:55:53.914Z,0.10
2023-02-07T04:56:36.436Z,0.10
2023-02-07T04:57:18.275Z,0.10
2023-02-07T04:58:00.132Z,0.10
2023-02-07T04:58:41.911Z,0.20
2023-02-07T04:59:23.652Z,0.50
2023-02-07T05:00:05.785Z,0.20
2023-02-07T05:00:47.812Z,0.20
2023-02-07T05:01:29.645Z,0.00
2023-02-07T05:02:14.109Z,0.20
2023-02-07T05:02:55.976Z,-0.10
2023-02-07T05:03:37.857Z,-0.10
2023-02-07T05:04:19.743Z,0.20
2023-02-07T05:05:03.914Z,0.10
2023-02-07T05:05:46.046Z,0.20
2023-02-07T05:06:27.856Z,0.30
2023-02-07T05:07:09.732Z,0.20
2023-02-07T05:07:51.845Z,0.30
2023-02-07T05:08:35.667Z,0.30
2023-02-07T05:09:17.646Z,0.20
2023-02-07T05:09:59.441Z,0.10
2023-02-07T05:10:41.902Z,0.30
2023-02-07T05:11:23.645Z,0.20
2023-02-07T05:12:07.958Z,0.50
2023-02-07T05:12:49.781Z,0.20
2023-02-07T05:13:31.886Z,0.60
2023-02-07T05:14:13.715Z,0.00
2023-02-07T05:14:59.283Z,0.00
2023-02-07T05:15:41.225Z,0.20
2023-02-07T05:16:23.114Z,0.00
2023-02-07T05:17:47.529Z,0.00
2023-02-07T05:18:29.391Z,0.10
2023-02-07T05:19:11.157Z,0.00
2023-02-07T05:19:52.947Z,0.20
2023-02-07T05:20:35.075Z,0.10
2023-02-07T05:21:16.862Z,0.00
2023-02-07T05:22:00.970Z,0.00
2023-02-07T05:22:42.722Z,-0.10
2023-02-07T05:23:24.806Z,-0.10
2023-02-07T05:24:06.907Z,0.00
2023-02-07T05:24:48.702Z,-0.10
2023-02-07T05:25:32.794Z,-0.10
2023-02-07T05:26:15.025Z,0.10
2023-02-07T05:26:56.998Z,0.00
2023-02-07T05:27:38.829Z,0.00
2023-02-07T05:28:20.928Z,0.00
2023-02-07T05:29:02.748Z,0.10
2023-02-07T05:29:44.694Z,0.00
2023-02-07T05:30:26.865Z,0.20
2023-02-07T05:31:08.859Z,0.00
2023-02-07T05:32:09.066Z,0.10
2023-02-07T05:33:06.021Z,0.00
2023-02-07T05:33:47.903Z,1.10
2023-02-07T05:34:29.848Z,0.00
2023-02-07T05:35:12.055Z,0.00
2023-02-07T05:35:53.790Z,-3.70
2023-02-07T05:36:38.122Z,0.00
2023-02-07T05:37:19.896Z,0.10
2023-02-07T05:38:02.437Z,0.10
2023-02-07T05:38:44.162Z,0.40
2023-02-07T05:39:26.046Z,0.00
2023-02-07T05:40:10.694Z,0.10
2023-02-07T05:40:52.640Z,-0.10
2023-02-07T05:41:34.433Z,0.00
2023-02-07T05:42:16.398Z,0.00
2023-02-07T05:42:58.197Z,-0.10
2023-02-07T05:43:39.922Z,0.00
2023-02-07T05:44:22.068Z,-0.10
2023-02-07T05:45:04.142Z,-0.10
2023-02-07T05:45:46.068Z,-0.20
2023-02-07T05:46:27.865Z,-0.10
2023-02-07T05:47:09.882Z,-0.20
2023-02-07T05:47:51.963Z,1.00
2023-02-07T05:48:33.708Z,0.00
2023-02-07T05:49:57.788Z,0.00
2023-02-07T05:50:39.882Z,0.10
2023-02-07T05:51:22.073Z,0.00
2023-02-07T05:52:04.071Z,-0.20
2023-02-07T05:52:47.887Z,-0.20
2023-02-07T05:53:29.936Z,0.40
2023-02-07T05:54:12.015Z,0.10
2023-02-07T05:54:56.326Z,0.10
2023-02-07T05:55:38.300Z,0.60
2023-02-07T05:56:20.395Z,-0.10
2023-02-07T05:57:02.510Z,0.70
2023-02-07T05:57:44.593Z,-0.20
2023-02-07T05:58:26.392Z,-0.10
2023-02-07T05:59:08.231Z,1.20
2023-02-07T05:59:50.024Z,-0.20
2023-02-07T06:00:32.129Z,3.10
2023-02-07T06:01:13.931Z,-0.20
2023-02-07T06:01:58.021Z,0.00
2023-02-07T06:02:42.768Z,-0.20
2023-02-07T06:03:24.532Z,-0.20
2023-02-07T06:04:06.355Z,-0.20
2023-02-07T06:04:48.389Z,-0.10
2023-02-07T06:05:34.252Z,-0.10
2023-02-07T06:06:15.998Z,0.00
2023-02-07T06:06:57.878Z,-0.10
2023-02-07T06:07:39.974Z,-0.30
2023-02-07T06:08:22.158Z,-0.20
2023-02-07T06:09:04.909Z,-0.20
2023-02-07T06:09:47.060Z,-0.20
2023-02-07T06:10:31.218Z,-0.10
2023-02-07T06:11:13.037Z,0.00
2023-02-07T06:11:56.069Z,-0.30
2023-02-07T06:12:37.921Z,-0.20
2023-02-07T06:13:19.687Z,-0.20
2023-02-07T06:14:01.550Z,-0.20
2023-02-07T06:14:43.449Z,0.30
2023-02-07T06:15:25.359Z,-0.10
2023-02-07T06:16:07.625Z,-0.30
2023-02-07T06:16:49.403Z,-0.30
2023-02-07T06:17:31.252Z,-0.30
2023-02-07T06:18:13.041Z,-0.30
2023-02-07T06:18:54.779Z,-0.20
2023-02-07T06:19:36.523Z,-0.30
2023-02-07T06:20:18.397Z,-0.30
2023-02-07T06:21:00.212Z,-0.40
2023-02-07T06:22:30.979Z,-0.30
2023-02-07T06:23:12.794Z,-0.20
2023-02-07T06:23:54.553Z,-0.30
2023-02-07T06:24:36.343Z,-0.10
2023-02-07T06:25:21.002Z,0.60
2023-02-07T06:26:03.177Z,-0.20
2023-02-07T06:26:46.713Z,-0.40
2023-02-07T06:27:28.546Z,-0.30
2023-02-07T06:28:10.519Z,-0.30
2023-02-07T06:28:52.602Z,-0.20
2023-02-07T06:29:34.449Z,-0.10
2023-02-07T06:30:16.229Z,-0.40
2023-02-07T06:30:58.176Z,-0.30
2023-02-07T06:31:40.220Z,-0.20
2023-02-07T06:32:22.248Z,-0.40
2023-02-07T06:33:06.126Z,-0.30
2023-02-07T06:33:47.827Z,-0.30
2023-02-07T06:34:29.568Z,-0.10
2023-02-07T06:35:11.367Z,-0.30
2023-02-07T06:35:55.559Z,-0.30
2023-02-07T06:36:37.757Z,-0.40
2023-02-07T06:37:19.528Z,-0.10
2023-02-07T06:38:43.648Z,-0.40
2023-02-07T06:39:25.536Z,-0.40
2023-02-07T06:40:08.233Z,-0.30
2023-02-07T06:40:50.103Z,-0.20
2023-02-07T06:41:34.477Z,-0.40
2023-02-07T06:42:16.246Z,-0.30
2023-02-07T06:42:58.034Z,-0.30
2023-02-07T06:43:40.536Z,-0.30
2023-02-07T06:44:22.617Z,0.20
2023-02-07T06:45:05.021Z,-0.20
2023-02-07T06:45:46.815Z,-0.30
2023-02-07T06:46:28.589Z,-0.30
2023-02-07T06:47:10.506Z,-0.50
2023-02-07T06:47:52.226Z,-0.30
2023-02-07T06:48:36.330Z,-0.30
2023-02-07T06:49:18.113Z,-0.40
2023-02-07T06:50:00.035Z,-0.30
2023-02-07T06:50:41.820Z,0.30
2023-02-07T06:51:23.617Z,-0.30
2023-02-07T06:52:05.501Z,-0.20
2023-02-07T06:52:47.318Z,-0.50
2023-02-07T06:53:29.865Z,-0.40
2023-02-07T06:54:11.612Z,-0.40
2023-02-07T06:54:53.450Z,-0.20
2023-02-07T06:55:40.017Z,-0.20
2023-02-07T06:56:22.392Z,-0.40
2023-02-07T06:57:04.205Z,-0.40
2023-02-07T06:57:48.148Z,-0.30
2023-02-07T06:58:29.905Z,-0.20
2023-02-07T06:59:12.018Z,-0.30
2023-02-07T06:59:53.743Z,-0.10
2023-02-07T07:00:38.136Z,-0.20
2023-02-07T07:01:20.276Z,-0.10
2023-02-07T07:02:03.642Z,-0.30
2023-02-07T07:02:45.655Z,-0.30
2023-02-07T07:03:29.413Z,-0.40
2023-02-07T07:04:11.262Z,-0.30
2023-02-07T07:04:53.029Z,-0.10
2023-02-07T07:05:34.788Z,-0.50
2023-02-07T07:06:16.731Z,-0.20
2023-02-07T07:06:58.695Z,-0.10
2023-02-07T07:07:40.755Z,-0.10
2023-02-07T07:08:22.819Z,-0.10
2023-02-07T07:09:05.305Z,-0.20
2023-02-07T07:09:47.067Z,-0.20
2023-02-07T07:10:31.015Z,-0.40
2023-02-07T07:11:13.254Z,-0.30
2023-02-07T07:11:55.004Z,2.20
2023-02-07T07:12:36.855Z,-0.30
2023-02-07T07:13:18.643Z,-0.20
2023-02-07T07:14:00.632Z,-0.40
2023-02-07T07:14:42.649Z,-0.20
2023-02-07T07:15:24.376Z,-0.10
2023-02-07T07:16:06.315Z,-0.20
2023-02-07T07:16:48.106Z,-0.10
2023-02-07T07:17:29.847Z,-0.20
2023-02-07T07:18:11.590Z,0.20
2023-02-07T07:18:53.508Z,-0.10
2023-02-07T07:19:35.297Z,-0.20
2023-02-07T07:20:17.382Z,-0.20
2023-02-07T07:20:59.139Z,-0.20
2023-02-07T07:22:23.073Z,-0.10
2023-02-07T07:23:05.128Z,-0.10
2023-02-07T07:23:47.361Z,-0.10
2023-02-07T07:24:29.097Z,2.90
2023-02-07T07:25:11.436Z,0.90
2023-02-07T07:25:53.255Z,0.00
2023-02-07T07:26:48.301Z,-0.20
2023-02-07T07:27:31.426Z,0.10
2023-02-07T07:28:13.327Z,0.10
2023-02-07T07:28:58.236Z,0.20
2023-02-07T07:29:40.203Z,0.30
2023-02-07T07:30:24.316Z,0.00
2023-02-07T07:31:08.195Z,-0.30
2023-02-07T07:31:50.218Z,-0.10
2023-02-07T07:33:34.234Z,-0.10
2023-02-07T07:34:16.030Z,0.20
2023-02-07T07:34:58.400Z,-0.10
2023-02-07T07:35:40.585Z,0.00
2023-02-07T07:36:22.909Z,0.00
2023-02-07T07:37:05.079Z,-1.90
2023-02-07T07:37:46.864Z,0.30
2023-02-07T07:38:31.376Z,0.40
2023-02-07T07:39:14.571Z,1.10
2023-02-07T07:39:56.300Z,0.10
2023-02-07T07:40:38.217Z,2.60
2023-02-07T07:41:20.256Z,-0.10
2023-02-07T07:42:02.258Z,0.30
2023-02-07T07:42:44.199Z,0.10
2023-02-07T07:43:29.366Z,0.00
2023-02-07T07:44:13.208Z,0.10
2023-02-07T07:44:55.029Z,0.10
2023-02-07T07:45:36.740Z,0.20
2023-02-07T07:46:18.629Z,0.00
2023-02-07T07:47:00.418Z,0.00
2023-02-07T07:47:42.339Z,0.10
2023-02-07T07:48:24.958Z,0.10
2023-02-07T07:49:06.843Z,0.30
2023-02-07T07:49:49.926Z,0.00
2023-02-07T07:50:32.836Z,0.10
2023-02-07T07:51:14.682Z,0.20
2023-02-07T07:51:56.442Z,0.30
2023-02-07T07:52:38.683Z,0.20
2023-02-07T07:53:20.916Z,0.30
2023-02-07T07:54:45.377Z,0.60
2023-02-07T07:55:27.193Z,0.20
2023-02-07T07:56:09.007Z,0.30
2023-02-07T07:56:50.819Z,0.50
2023-02-07T07:57:32.702Z,1.60
2023-02-07T07:58:14.687Z,0.20
2023-02-07T07:58:56.829Z,0.30
2023-02-07T07:59:38.728Z,0.40
2023-02-07T08:00:20.773Z,0.50
2023-02-07T08:01:02.907Z,0.50
2023-02-07T08:01:44.728Z,2.40
2023-02-07T08:02:27.282Z,0.40
2023-02-07T08:03:09.171Z,0.30
2023-02-07T08:03:53.679Z,0.40
2023-02-07T08:04:35.486Z,0.60
2023-02-07T08:05:17.464Z,0.50
2023-02-07T08:05:59.257Z,0.40
2023-02-07T08:06:43.474Z,0.50
2023-02-07T08:07:25.375Z,0.50
2023-02-07T08:08:07.958Z,0.70
2023-02-07T08:08:49.831Z,0.60
2023-02-07T08:09:31.661Z,0.60
2023-02-07T08:10:13.611Z,0.60
2023-02-07T08:10:55.436Z,0.60
2023-02-07T08:11:37.473Z,0.70
2023-02-07T08:12:19.250Z,0.70
2023-02-07T08:13:03.844Z,0.50
2023-02-07T08:13:45.768Z,0.60
2023-02-07T08:15:10.051Z,0.70
2023-02-07T08:15:51.949Z,0.70
2023-02-07T08:16:33.785Z,0.90
2023-02-07T08:17:15.743Z,0.90
2023-02-07T08:17:57.835Z,0.60
2023-02-07T08:18:40.133Z,1.30
2023-02-07T08:19:22.106Z,0.80
2023-02-07T08:20:05.381Z,0.90
2023-02-07T08:20:49.626Z,0.90
2023-02-07T08:22:15.454Z,0.90
2023-02-07T08:22:58.169Z,0.90
2023-02-07T08:23:40.292Z,0.70
2023-02-07T08:24:24.267Z,1.10
2023-02-07T08:25:06.702Z,0.70
2023-02-07T08:25:50.158Z,0.60
2023-02-07T08:26:31.937Z,0.90
2023-02-07T08:27:13.801Z,1.00
2023-02-07T08:27:55.834Z,1.00
2023-02-07T08:28:37.877Z,1.00
2023-02-07T08:29:19.633Z,1.00
2023-02-07T08:30:01.433Z,1.00
2023-02-07T08:30:43.438Z,1.00
2023-02-07T08:31:25.345Z,1.10
2023-02-07T08:32:07.115Z,1.00
2023-02-07T08:32:49.017Z,1.10
2023-02-07T08:33:31.811Z,1.00
2023-02-07T08:34:13.583Z,1.20
2023-02-07T08:34:55.445Z,1.20
2023-02-07T08:35:37.308Z,1.20
2023-02-07T08:36:19.421Z,1.20
2023-02-07T08:37:01.304Z,1.90
2023-02-07T08:37:44.068Z,1.30
2023-02-07T08:38:26.084Z,1.30
2023-02-07T08:39:08.074Z,1.30
2023-02-07T08:39:52.827Z,1.30
2023-02-07T08:40:35.127Z,1.30
2023-02-07T08:41:16.961Z,1.30
2023-02-07T08:41:58.789Z,1.40
2023-02-07T08:42:40.637Z,1.40
2023-02-07T08:44:04.703Z,1.40
2023-02-07T08:44:48.141Z,1.40
2023-02-07T08:45:30.103Z,2.00
2023-02-07T08:46:12.175Z,1.40
2023-02-07T08:46:54.091Z,1.40
2023-02-07T08:47:35.953Z,1.40
2023-02-07T08:48:17.945Z,1.40
2023-02-07T08:48:59.792Z,1.60
2023-02-07T08:49:41.629Z,1.70
2023-02-07T08:50:23.446Z,1.50
2023-02-07T08:51:07.527Z,1.40
2023-02-07T08:51:49.418Z,1.50
2023-02-07T08:52:33.485Z,1.50
2023-02-07T08:53:15.421Z,1.40
2023-02-07T08:53:57.686Z,1.70
2023-02-07T08:54:39.588Z,1.50
2023-02-07T08:55:23.723Z,1.70
2023-02-07T08:56:05.832Z,1.60
2023-02-07T08:56:48.487Z,1.50
2023-02-07T08:57:30.416Z,1.70
2023-02-07T08:58:12.531Z,1.70
2023-02-07T08:58:56.677Z,1.60
2023-02-07T08:59:38.542Z,1.70
2023-02-07T09:01:02.830Z,1.50
2023-02-07T09:01:44.702Z,1.70
2023-02-07T09:02:26.815Z,1.60
2023-02-07T09:03:08.734Z,1.50
2023-02-07T09:03:50.551Z,1.80
2023-02-07T09:04:32.637Z,1.80
2023-02-07T09:05:14.527Z,1.80
2023-02-07T09:05:59.872Z,1.90
2023-02-07T09:06:41.992Z,2.50
2023-02-07T09:07:24.001Z,2.10
2023-02-07T09:08:05.954Z,1.90
2023-02-07T09:08:47.750Z,1.90
2023-02-07T09:09:29.511Z,2.00
2023-02-07T09:10:14.071Z,2.00
2023-02-07T09:10:55.987Z,2.00
2023-02-07T09:11:38.310Z,2.00
2023-02-07T09:12:20.098Z,2.00
2023-02-07T09:13:02.284Z,-1.50
2023-02-07T09:13:45.488Z,2.00
2023-02-07T09:14:27.471Z,2.00
2023-02-07T09:15:09.699Z,2.00
2023-02-07T09:15:58.945Z,1.80
2023-02-07T09:16:40.872Z,4.40
2023-02-07T09:17:22.787Z,2.10
2023-02-07T09:18:04.723Z,2.40
2023-02-07T09:18:46.582Z,2.10
2023-02-07T09:19:28.518Z,2.00
2023-02-07T09:20:11.094Z,2.10
2023-02-07T09:20:53.509Z,2.30
2023-02-07T09:21:37.503Z,2.20
2023-02-07T09:22:19.472Z,2.00
2023-02-07T09:23:19.552Z,-1.60
2023-02-07T09:24:03.661Z,2.10
2023-02-07T09:24:45.548Z,2.10
2023-02-07T09:25:29.510Z,2.10
2023-02-07T09:26:17.060Z,1.90
2023-02-07T09:26:59.250Z,2.00
2023-02-07T09:27:41.117Z,2.10
2023-02-07T09:28:23.182Z,2.10
2023-02-07T09:29:06.689Z,2.10
2023-02-07T09:29:48.937Z,1.80
2023-02-07T09:30:30.682Z,2.20
2023-02-07T09:31:56.079Z,2.40
2023-02-07T09:32:38.161Z,2.40
2023-02-07T09:33:20.286Z,2.00
2023-02-07T09:34:02.964Z,2.20
2023-02-07T09:34:44.808Z,2.30
2023-02-07T09:35:26.701Z,2.10
2023-02-07T09:36:29.789Z,2.30
2023-02-07T09:37:11.576Z,7.10
2023-02-07T09:37:54.537Z,2.50
2023-02-07T09:38:36.347Z,2.40
2023-02-07T09:39:18.477Z,2.40
2023-02-07T09:40:00.405Z,2.50
2023-02-07T09:40:43.314Z,2.30
2023-02-07T09:41:52.773Z,2.30
2023-02-07T09:42:50.849Z,2.40
2023-02-07T09:43:48.484Z,2.40
2023-02-07T09:44:46.764Z,6.00
2023-02-07T09:45:34.553Z,2.50
2023-02-07T09:46:24.185Z,2.50
2023-02-07T09:47:13.125Z,2.40
2023-02-07T09:48:07.634Z,2.60
2023-02-07T09:49:00.665Z,2.50
2023-02-07T09:49:57.180Z,2.50
2023-02-07T09:50:46.911Z,2.60
2023-02-07T09:51:28.912Z,3.20
2023-02-07T09:52:17.168Z,2.60
2023-02-07T09:53:24.607Z,2.60
2023-02-07T09:54:26.447Z,2.70
2023-02-07T09:55:21.821Z,2.60
2023-02-07T09:56:05.029Z,2.80
2023-02-07T09:56:47.678Z,2.60
2023-02-07T09:57:37.918Z,2.80
2023-02-07T09:58:44.668Z,2.60
2023-02-07T10:00:04.693Z,2.80
2023-02-07T10:00:53.836Z,2.80
2023-02-07T10:01:44.263Z,2.80
2023-02-07T10:02:36.161Z,2.80
2023-02-07T10:03:24.092Z,4.80
2023-02-07T10:04:29.240Z,2.90
2023-02-07T10:05:19.247Z,2.80
2023-02-07T10:06:17.716Z,2.90
2023-02-07T10:07:03.174Z,3.00
2023-02-07T10:07:46.319Z,2.80
2023-02-07T10:08:39.785Z,3.00
2023-02-07T10:09:29.527Z,3.00
2023-02-07T10:10:19.784Z,2.80
2023-02-07T10:11:22.895Z,3.00
2023-02-07T10:12:14.251Z,3.00
2023-02-07T10:13:20.435Z,3.00
2023-02-07T10:14:14.421Z,2.90
2023-02-07T10:15:06.878Z,3.00
2023-02-07T10:16:22.238Z,3.20
2023-02-07T10:17:34.228Z,3.10
2023-02-07T10:18:43.021Z,3.10
2023-02-07T10:19:54.969Z,3.20
2023-02-07T10:22:00.231Z,3.00
2023-02-07T10:22:50.638Z,3.20
2023-02-07T10:23:54.964Z,3.20
2023-02-07T10:24:48.421Z,3.20
2023-02-07T10:25:59.857Z,3.30
2023-02-07T10:27:04.120Z,3.20
2023-02-07T10:28:09.336Z,3.10
2023-02-07T10:29:18.126Z,3.20
2023-02-07T10:30:31.705Z,3.20
2023-02-07T10:31:17.386Z,3.20
2023-02-07T10:32:06.180Z,3.30
2023-02-07T10:32:48.062Z,3.30
2023-02-07T10:33:34.419Z,3.20
2023-02-07T10:34:22.993Z,3.40
2023-02-07T10:35:33.686Z,3.10
2023-02-07T10:36:16.621Z,3.10
2023-02-07T10:36:58.774Z,3.60
2023-02-07T10:37:43.546Z,3.20
2023-02-07T10:39:06.966Z,3.40
2023-02-07T10:40:15.994Z,3.30
2023-02-07T10:41:18.363Z,3.60
2023-02-07T10:42:00.224Z,3.60
2023-02-07T10:42:46.179Z,3.50
2023-02-07T10:43:30.497Z,3.30
2023-02-07T10:44:14.604Z,3.30
2023-02-07T10:44:57.176Z,3.40
2023-02-07T10:45:46.525Z,3.60
2023-02-07T10:46:30.017Z,3.30
2023-02-07T10:47:17.862Z,3.40
2023-02-07T10:47:59.695Z,3.30
2023-02-07T10:48:41.509Z,3.60
2023-02-07T10:49:26.328Z,3.60
2023-02-07T10:50:24.865Z,3.50
2023-02-07T10:52:22.277Z,3.60
2023-02-07T10:53:04.106Z,3.60
2023-02-07T10:53:54.949Z,3.50
2023-02-07T10:54:54.361Z,3.50
2023-02-07T10:55:48.029Z,7.40
2023-02-07T10:56:32.565Z,3.70
2023-02-07T10:57:19.210Z,1.30
2023-02-07T10:58:17.738Z,3.70
2023-02-07T10:59:03.656Z,3.80
2023-02-07T10:59:48.291Z,3.60
2023-02-07T11:00:33.099Z,3.50
2023-02-07T11:01:20.866Z,3.60
2023-02-07T11:02:23.694Z,3.60
2023-02-07T11:03:15.962Z,3.70
2023-02-07T11:03:58.607Z,3.70
2023-02-07T11:04:43.601Z,3.70
2023-02-07T11:05:26.616Z,3.70
2023-02-07T11:06:10.261Z,3.80
2023-02-07T11:07:01.809Z,3.50
2023-02-07T11:08:02.167Z,3.70
2023-02-07T11:08:44.116Z,3.80
2023-02-07T11:09:26.465Z,4.00
2023-02-07T11:10:26.400Z,3.90
2023-02-07T11:11:20.536Z,3.90
2023-02-07T11:12:15.369Z,4.00
2023-02-07T11:12:59.299Z,6.20
2023-02-07T11:13:48.520Z,3.70
2023-02-07T11:14:30.706Z,3.90
2023-02-07T11:15:19.840Z,3.90
2023-02-07T11:16:08.645Z,4.00
2023-02-07T11:16:50.521Z,3.90
2023-02-07T11:17:35.048Z,3.80
2023-02-07T11:18:33.499Z,3.90
2023-02-07T11:19:20.423Z,3.70
2023-02-07T11:20:05.437Z,3.90
2023-02-07T11:20:52.575Z,4.00
2023-02-07T11:21:34.320Z,3.80
2023-02-07T11:22:22.248Z,4.90
2023-02-07T11:23:10.351Z,4.00
2023-02-07T11:23:55.803Z,4.00
2023-02-07T11:24:38.565Z,3.90
2023-02-07T11:25:31.592Z,3.90
2023-02-07T11:26:16.465Z,4.20
2023-02-07T11:27:04.912Z,3.90
2023-02-07T11:27:47.404Z,4.00
2023-02-07T11:28:31.293Z,3.90
2023-02-07T11:29:20.225Z,4.30
2023-02-07T11:30:09.799Z,4.00
2023-02-07T11:31:03.704Z,4.20
2023-02-07T11:31:47.969Z,4.10
2023-02-07T11:32:31.278Z,4.10
2023-02-07T11:33:23.587Z,4.20
2023-02-07T11:34:28.732Z,4.10
2023-02-07T11:35:20.792Z,4.20
2023-02-07T11:36:17.269Z,4.20
2023-02-07T11:37:30.183Z,4.20
2023-02-07T11:38:15.561Z,4.10
2023-02-07T11:38:59.717Z,4.00
2023-02-07T11:40:27.243Z,4.20
2023-02-07T11:41:18.292Z,5.80
2023-02-07T11:42:01.429Z,4.20
2023-02-07T11:42:43.206Z,4.40
2023-02-07T11:43:25.145Z,4.40
2023-02-07T11:44:18.242Z,4.20
2023-02-07T11:45:04.913Z,4.30
2023-02-07T11:45:57.100Z,4.30
2023-02-07T11:46:42.299Z,4.20
2023-02-07T11:47:29.304Z,5.00
2023-02-07T11:48:28.063Z,4.40
2023-02-07T11:49:29.602Z,4.20
2023-02-07T11:50:39.912Z,5.60
2023-02-07T11:51:22.662Z,4.40
2023-02-07T11:52:05.350Z,4.50
2023-02-07T11:52:59.203Z,4.30
2023-02-07T11:53:51.659Z,4.40
2023-02-07T11:54:34.402Z,4.20
2023-02-07T11:55:21.837Z,4.40
2023-02-07T11:56:05.389Z,4.50
2023-02-07T11:57:00.668Z,4.30
2023-02-07T11:57:42.611Z,4.30
2023-02-07T11:58:37.598Z,4.30
2023-02-07T11:59:24.811Z,4.40